createdAt,value
2023-03-25T00:00:20.860Z,8.07
2023-03-25T00:03:09.365Z,8.05
2023-03-25T00:05:39.928Z,7.94
2023-03-25T00:08:07.260Z,7.83
2023-03-25T00:10:34.763Z,8.18
2023-03-25T00:13:05.529Z,8.29
2023-03-25T00:15:34.003Z,8.23
2023-03-25T00:18:02.121Z,8.49
2023-03-25T00:20:29.712Z,8.55
2023-03-25T00:22:56.933Z,8.54
2023-03-25T00:25:24.746Z,8.47
2023-03-25T00:27:52.021Z,8.63
2023-03-25T00:30:21.256Z,8.77
2023-03-25T00:32:53.032Z,8.85
2023-03-25T00:35:22.119Z,8.88
2023-03-25T00:37:57.704Z,8.93
2023-03-25T00:40:30.956Z,8.95
2023-03-25T00:42:58.319Z,9.02
2023-03-25T00:45:25.889Z,9.06
2023-03-25T00:47:53.142Z,9.06
2023-03-25T00:50:21.836Z,9.04
2023-03-25T00:52:49.921Z,8.93
2023-03-25T00:55:17.591Z,8.99
2023-03-25T00:57:44.821Z,8.97
2023-03-25T01:00:16.077Z,8.99
2023-03-25T01:02:43.881Z,8.94
2023-03-25T01:05:12.255Z,8.55
2023-03-25T01:07:40.304Z,8.77
2023-03-25T01:10:10.011Z,8.82
2023-03-25T01:12:37.164Z,8.83
2023-03-25T01:15:04.970Z,8.88
2023-03-25T01:17:32.244Z,8.90
2023-03-25T01:19:59.745Z,8.89
2023-03-25T01:22:26.869Z,8.83
2023-03-25T01:24:55.517Z,8.85
2023-03-25T01:27:24.611Z,8.81
2023-03-25T01:29:54.585Z,8.84
2023-03-25T01:32:21.782Z,8.88
2023-03-25T01:34:49.724Z,8.88
2023-03-25T01:37:18.223Z,9.00
2023-03-25T01:39:45.934Z,8.99
2023-03-25T01:42:13.065Z,8.81
2023-03-25T01:44:41.092Z,8.70
2023-03-25T01:47:08.989Z,8.64
2023-03-25T01:49:44.583Z,8.81
2023-03-25T01:52:18.529Z,8.34
2023-03-25T01:54:47.880Z,8.32
2023-03-25T01:57:20.795Z,8.43
2023-03-25T01:59:50.328Z,8.47
2023-03-25T02:02:19.034Z,8.43
2023-03-25T02:05:02.001Z,8.57
2023-03-25T02:07:33.268Z,8.75
2023-03-25T02:10:05.816Z,8.78
2023-03-25T02:12:33.646Z,8.82
2023-03-25T02:15:04.619Z,8.94
2023-03-25T02:17:46.703Z,9.10
2023-03-25T02:20:44.832Z,8.71
2023-03-25T02:23:41.985Z,8.94
2023-03-25T02:26:42.186Z,8.88
2023-03-25T02:29:27.757Z,8.88
2023-03-25T02:32:26.911Z,8.85
2023-03-25T02:35:26.211Z,8.93
2023-03-25T02:38:15.555Z,8.93
2023-03-25T02:41:04.144Z,8.76
2023-03-25T02:43:37.698Z,8.81
2023-03-25T02:46:08.299Z,8.83
2023-03-25T02:48:51.246Z,8.69
2023-03-25T02:51:25.044Z,8.69
2023-03-25T02:53:55.403Z,8.61
2023-03-25T02:56:25.889Z,8.64
2023-03-25T02:58:57.098Z,8.65
2023-03-25T03:01:27.102Z,8.67
2023-03-25T03:03:56.899Z,8.39
2023-03-25T03:06:25.790Z,8.39
2023-03-25T03:09:13.936Z,8.27
2023-03-25T03:12:10.868Z,8.29
2023-03-25T03:14:44.430Z,8.29
2023-03-25T03:17:34.125Z,8.19
2023-03-25T03:20:20.298Z,8.18
2023-03-25T03:23:06.158Z,8.26
2023-03-25T03:25:42.678Z,8.15
2023-03-25T03:28:19.783Z,8.21
2023-03-25T03:30:54.527Z,8.09
2023-03-25T03:33:52.105Z,8.12
2023-03-25T03:36:27.960Z,8.24
2023-03-25T03:39:04.228Z,8.14
2023-03-25T03:41:36.107Z,8.02
2023-03-25T03:44:13.087Z,7.87
2023-03-25T03:46:51.518Z,8.06
2023-03-25T03:49:23.355Z,7.95
2023-03-25T03:51:58.053Z,8.00
2023-03-25T03:54:31.779Z,8.15
2023-03-25T03:57:05.352Z,8.20
2023-03-25T03:59:35.355Z,8.19
2023-03-25T04:02:09.676Z,8.18
2023-03-25T04:04:38.936Z,8.01
2023-03-25T04:07:14.803Z,8.07
2023-03-25T04:10:14.746Z,8.01
2023-03-25T04:12:51.155Z,8.20
2023-03-25T04:15:19.058Z,8.04
2023-03-25T04:17:48.299Z,8.08
2023-03-25T04:20:23.993Z,8.13
2023-03-25T04:22:52.762Z,8.11
2023-03-25T04:25:21.740Z,8.02
2023-03-25T04:27:49.478Z,7.99
2023-03-25T04:30:19.922Z,8.02
2023-03-25T04:32:47.795Z,7.89
2023-03-25T04:35:18.530Z,7.90
2023-03-25T04:37:49.085Z,7.96
2023-03-25T04:40:18.988Z,8.10
2023-03-25T04:42:47.246Z,8.17
2023-03-25T04:45:17.120Z,8.11
2023-03-25T04:47:47.213Z,8.09
2023-03-25T04:50:31.916Z,8.31
2023-03-25T04:53:02.186Z,8.32
2023-03-25T04:55:30.048Z,8.44
2023-03-25T04:57:57.612Z,8.70
2023-03-25T05:00:25.737Z,8.76
2023-03-25T05:02:55.986Z,8.83
2023-03-25T05:05:25.057Z,8.99
2023-03-25T05:07:54.750Z,9.18
2023-03-25T05:10:24.366Z,9.23
2023-03-25T05:12:58.876Z,9.18
2023-03-25T05:15:26.570Z,9.13
2023-03-25T05:17:54.290Z,9.28
2023-03-25T05:20:22.745Z,9.43
2023-03-25T05:22:53.431Z,9.60
2023-03-25T05:25:23.795Z,9.76
2023-03-25T05:27:51.306Z,9.71
2023-03-25T05:30:19.286Z,9.92
2023-03-25T05:32:50.837Z,10.11
2023-03-25T05:35:26.796Z,10.10
2023-03-25T05:37:56.012Z,9.98
2023-03-25T05:40:23.955Z,9.76
2023-03-25T05:42:54.816Z,10.14
2023-03-25T05:45:23.069Z,10.34
2023-03-25T05:47:51.248Z,10.42
2023-03-25T05:50:18.984Z,11.23
2023-03-25T05:52:49.586Z,11.69
2023-03-25T05:55:20.846Z,13.02
2023-03-25T05:57:49.636Z,15.11
2023-03-25T06:00:19.405Z,16.98
2023-03-25T06:02:49.085Z,18.96
2023-03-25T06:05:17.026Z,20.25
2023-03-25T06:07:47.623Z,21.45
2023-03-25T06:10:18.823Z,22.56
2023-03-25T06:12:47.868Z,23.24
2023-03-25T06:15:29.455Z,23.17
2023-03-25T06:17:57.523Z,23.43
2023-03-25T06:20:25.350Z,24.76
2023-03-25T06:22:52.868Z,24.43
2023-03-25T06:25:23.644Z,24.01
2023-03-25T06:27:51.482Z,25.27
2023-03-25T06:30:21.155Z,26.65
2023-03-25T06:32:50.981Z,27.44
2023-03-25T06:35:20.455Z,28.00
2023-03-25T06:37:49.419Z,28.55
2023-03-25T06:40:25.980Z,28.44
2023-03-25T06:42:54.008Z,27.81
2023-03-25T06:45:39.891Z,27.31
2023-03-25T06:48:20.735Z,27.08
2023-03-25T06:50:48.272Z,28.90
2023-03-25T06:53:15.961Z,30.17
2023-03-25T06:55:44.917Z,26.36
2023-03-25T06:58:12.595Z,26.18
2023-03-25T07:00:39.909Z,27.01
2023-03-25T07:03:07.578Z,26.82
2023-03-25T07:05:34.924Z,26.21
2023-03-25T07:08:02.680Z,26.93
2023-03-25T07:10:31.072Z,28.18
2023-03-25T07:12:58.587Z,29.20
2023-03-25T07:15:26.092Z,27.69
2023-03-25T07:17:53.986Z,27.07
2023-03-25T07:20:21.229Z,28.06
2023-03-25T07:22:48.828Z,25.78
2023-03-25T07:25:16.319Z,23.51
2023-03-25T07:27:43.866Z,21.82
2023-03-25T07:30:15.712Z,22.95
2023-03-25T07:32:45.652Z,23.63
2023-03-25T07:35:13.171Z,23.51
2023-03-25T07:37:40.707Z,23.26
2023-03-25T07:40:08.681Z,26.44
2023-03-25T07:42:37.598Z,28.71
2023-03-25T07:45:22.196Z,26.84
2023-03-25T07:47:53.297Z,28.54
2023-03-25T07:50:24.564Z,29.56
2023-03-25T07:52:53.998Z,27.75
2023-03-25T07:55:21.788Z,27.99
2023-03-25T07:57:49.363Z,28.65
2023-03-25T08:00:16.684Z,28.51
2023-03-25T08:02:44.373Z,28.39
2023-03-25T08:05:12.531Z,29.82
2023-03-25T08:07:40.042Z,30.97
2023-03-25T08:10:08.107Z,30.23
2023-03-25T08:12:36.877Z,29.37
2023-03-25T08:15:04.338Z,29.55
2023-03-25T08:17:31.962Z,29.12
2023-03-25T08:20:00.808Z,27.60
2023-03-25T08:22:28.665Z,26.72
2023-03-25T08:24:56.072Z,25.15
2023-03-25T08:27:23.913Z,25.76
2023-03-25T08:29:57.483Z,25.60
2023-03-25T08:32:27.273Z,25.28
2023-03-25T08:34:55.303Z,24.33
2023-03-25T08:37:23.976Z,23.05
2023-03-25T08:39:51.423Z,22.05
2023-03-25T08:42:19.171Z,21.35
2023-03-25T08:44:46.713Z,20.36
2023-03-25T08:47:14.308Z,20.17
2023-03-25T08:49:41.624Z,19.69
2023-03-25T08:52:10.445Z,18.89
2023-03-25T08:54:37.719Z,19.85
2023-03-25T08:57:06.099Z,18.40
2023-03-25T08:59:33.483Z,18.64
2023-03-25T09:02:01.696Z,18.82
2023-03-25T09:04:29.050Z,18.50
2023-03-25T09:07:10.962Z,17.91
2023-03-25T09:09:38.994Z,17.22
2023-03-25T09:12:07.442Z,16.54
2023-03-25T09:14:34.811Z,16.07
2023-03-25T09:17:02.483Z,16.14
2023-03-25T09:19:29.727Z,16.68
2023-03-25T09:21:57.486Z,15.21
2023-03-25T09:24:25.321Z,15.67
2023-03-25T09:26:52.825Z,15.76
2023-03-25T09:29:20.030Z,15.79
2023-03-25T09:31:47.530Z,16.36
2023-03-25T09:34:16.137Z,16.22
2023-03-25T09:36:45.885Z,15.39
2023-03-25T09:39:13.150Z,15.78
2023-03-25T09:42:02.305Z,16.45
2023-03-25T09:45:11.836Z,16.85
2023-03-25T09:47:55.561Z,16.04
2023-03-25T09:50:24.937Z,16.38
2023-03-25T09:53:22.733Z,15.44
2023-03-25T09:55:52.234Z,14.91
2023-03-25T09:58:35.751Z,15.10
2023-03-25T10:01:21.813Z,15.68
2023-03-25T10:04:15.703Z,16.16
2023-03-25T10:07:02.655Z,16.61
2023-03-25T10:09:56.363Z,17.29
2023-03-25T10:12:29.290Z,18.51
2023-03-25T10:15:32.318Z,19.22
2023-03-25T10:18:30.135Z,20.03
2023-03-25T10:21:28.851Z,18.65
2023-03-25T10:24:16.948Z,19.60
2023-03-25T10:26:54.482Z,19.77
2023-03-25T10:29:31.864Z,19.28
2023-03-25T10:32:07.642Z,18.33
2023-03-25T10:34:43.359Z,18.21
2023-03-25T10:37:18.126Z,17.39
2023-03-25T10:39:47.436Z,17.08
2023-03-25T10:42:40.240Z,16.59
2023-03-25T10:45:16.332Z,16.05
2023-03-25T10:47:46.560Z,15.55
2023-03-25T10:50:19.595Z,15.59
2023-03-25T10:52:49.533Z,14.27
2023-03-25T10:55:32.779Z,13.46
2023-03-25T10:58:01.864Z,12.97
2023-03-25T11:00:30.538Z,12.71
2023-03-25T11:02:58.193Z,12.30
2023-03-25T11:05:28.702Z,12.01
2023-03-25T11:08:06.637Z,12.17
2023-03-25T11:10:48.216Z,12.13
2023-03-25T11:13:17.712Z,11.84
2023-03-25T11:15:45.091Z,11.83
2023-03-25T11:18:35.770Z,12.40
2023-03-25T11:21:08.074Z,12.86
2023-03-25T11:23:44.041Z,13.55
2023-03-25T11:26:30.587Z,13.87
2023-03-25T11:29:06.083Z,14.26
2023-03-25T11:31:41.979Z,14.83
2023-03-25T11:34:12.343Z,14.80
2023-03-25T11:36:59.862Z,15.02
2023-03-25T11:39:36.426Z,14.74
2023-03-25T11:42:39.187Z,15.18
2023-03-25T11:45:08.433Z,15.51
2023-03-25T11:47:38.380Z,15.86
2023-03-25T11:50:07.164Z,16.24
2023-03-25T11:52:45.513Z,16.45
2023-03-25T11:55:25.773Z,15.70
2023-03-25T11:57:56.501Z,16.07
2023-03-25T12:00:30.856Z,15.66
2023-03-25T12:03:03.123Z,15.83
2023-03-25T12:05:33.465Z,15.88
2023-03-25T12:08:09.892Z,16.11
2023-03-25T12:11:04.898Z,15.94
2023-03-25T12:13:32.107Z,16.34
2023-03-25T12:16:14.720Z,16.48
2023-03-25T12:18:51.146Z,16.46
2023-03-25T12:21:18.632Z,16.35
2023-03-25T12:24:10.046Z,15.74
2023-03-25T12:26:57.898Z,15.78
2023-03-25T12:29:34.215Z,15.75
2023-03-25T12:32:11.472Z,14.71
2023-03-25T12:34:58.833Z,15.26
2023-03-25T12:37:56.456Z,15.32
2023-03-25T12:40:51.206Z,15.74
2023-03-25T12:43:53.026Z,16.05
2023-03-25T12:47:04.185Z,16.39
2023-03-25T12:49:34.542Z,15.64
2023-03-25T12:52:19.779Z,15.91
2023-03-25T12:55:25.554Z,15.52
2023-03-25T12:58:04.644Z,15.81
2023-03-25T13:00:55.042Z,15.67
2023-03-25T13:03:37.604Z,16.10
2023-03-25T13:06:39.442Z,15.57
2023-03-25T13:09:19.443Z,16.01
2023-03-25T13:11:54.962Z,16.20
2023-03-25T13:14:30.005Z,16.13
2023-03-25T13:17:02.925Z,15.75
2023-03-25T13:19:36.655Z,15.55
2023-03-25T13:22:13.880Z,15.43
2023-03-25T13:24:51.582Z,15.76
2023-03-25T13:27:19.678Z,15.84
2023-03-25T13:29:49.141Z,15.76
2023-03-25T13:32:25.720Z,15.68
2023-03-25T13:34:57.483Z,15.67
2023-03-25T13:37:43.462Z,15.26
2023-03-25T13:40:13.568Z,15.14
2023-03-25T13:43:07.216Z,15.56
2023-03-25T13:45:46.262Z,15.79
2023-03-25T13:48:23.793Z,15.68
2023-03-25T13:50:51.581Z,14.73
2023-03-25T13:53:33.126Z,14.85
2023-03-25T13:56:09.481Z,14.51
2023-03-25T13:59:19.142Z,14.29
2023-03-25T14:02:25.633Z,12.86
2023-03-25T14:05:31.528Z,12.73
2023-03-25T14:08:29.717Z,12.02
2023-03-25T14:11:18.760Z,12.01
2023-03-25T14:13:53.969Z,11.74
2023-03-25T14:16:31.435Z,11.72
2023-03-25T14:19:27.842Z,11.78
2023-03-25T14:21:56.045Z,12.11
2023-03-25T14:24:29.866Z,12.33
2023-03-25T14:27:05.812Z,12.54
2023-03-25T14:29:39.220Z,12.97
2023-03-25T14:32:09.738Z,13.54
2023-03-25T14:34:39.330Z,13.75
2023-03-25T14:37:07.708Z,13.57
2023-03-25T14:39:34.869Z,13.95
2023-03-25T14:42:08.469Z,13.95
2023-03-25T14:44:41.441Z,13.82
2023-03-25T14:47:16.030Z,13.77
2023-03-25T14:50:05.387Z,13.26
2023-03-25T14:52:40.652Z,13.24
2023-03-25T14:55:19.837Z,12.83
2023-03-25T14:57:50.748Z,13.16
2023-03-25T15:00:29.370Z,12.73
2023-03-25T15:03:17.403Z,12.87
2023-03-25T15:05:52.884Z,12.69
2023-03-25T15:08:34.231Z,12.67
2023-03-25T15:11:17.188Z,13.08
2023-03-25T15:13:53.509Z,13.44
2023-03-25T15:16:32.836Z,13.45
2023-03-25T15:19:22.459Z,13.37
2023-03-25T15:21:59.307Z,13.32
2023-03-25T15:24:34.706Z,13.55
2023-03-25T15:27:27.898Z,12.99
2023-03-25T15:30:11.853Z,13.33
2023-03-25T15:33:36.367Z,13.43
2023-03-25T15:36:42.104Z,13.11
2023-03-25T15:39:27.490Z,13.36
2023-03-25T15:42:20.940Z,13.40
2023-03-25T15:45:12.662Z,13.50
2023-03-25T15:47:49.049Z,13.68
2023-03-25T15:50:16.300Z,13.69
2023-03-25T15:52:57.595Z,13.84
2023-03-25T15:55:31.474Z,13.44
2023-03-25T15:58:13.381Z,13.15
2023-03-25T16:00:50.861Z,13.26
2023-03-25T16:03:22.686Z,12.88
2023-03-25T16:05:54.962Z,12.87
2023-03-25T16:08:32.119Z,12.82
2023-03-25T16:11:27.414Z,12.94
2023-03-25T16:14:10.930Z,12.70
2023-03-25T16:16:42.134Z,12.86
2023-03-25T16:19:16.722Z,12.89
2023-03-25T16:21:48.841Z,12.86
2023-03-25T16:24:20.628Z,12.76
2023-03-25T16:26:49.273Z,12.86
2023-03-25T16:29:26.435Z,12.89
2023-03-25T16:31:58.537Z,12.80
2023-03-25T16:34:28.916Z,12.34
2023-03-25T16:36:57.025Z,12.17
2023-03-25T16:39:25.054Z,11.91
2023-03-25T16:42:01.468Z,11.80
2023-03-25T16:44:29.297Z,11.95
2023-03-25T16:46:56.776Z,11.66
2023-03-25T16:49:37.384Z,11.45
2023-03-25T16:52:12.120Z,11.23
2023-03-25T16:55:05.291Z,11.39
2023-03-25T16:57:37.456Z,11.19
2023-03-25T17:00:18.369Z,11.25
2023-03-25T17:02:49.834Z,11.24
2023-03-25T17:05:19.958Z,11.21
2023-03-25T17:07:51.084Z,11.19
2023-03-25T17:10:23.688Z,11.13
2023-03-25T17:12:58.559Z,11.14
2023-03-25T17:15:27.413Z,11.20
2023-03-25T17:18:01.252Z,11.25
2023-03-25T17:20:41.485Z,11.22
2023-03-25T17:23:18.077Z,11.24
2023-03-25T17:26:06.401Z,11.18
2023-03-25T17:29:03.154Z,11.17
2023-03-25T17:31:30.762Z,11.27
2023-03-25T17:34:00.638Z,10.97
2023-03-25T17:36:31.676Z,11.12
2023-03-25T17:39:03.199Z,10.99
2023-03-25T17:41:39.763Z,10.92
2023-03-25T17:44:07.581Z,10.67
2023-03-25T17:46:35.383Z,10.84
2023-03-25T17:49:13.845Z,10.68
2023-03-25T17:51:41.337Z,10.67
2023-03-25T17:54:08.549Z,10.50
2023-03-25T17:56:38.586Z,10.34
2023-03-25T17:59:32.334Z,10.22
2023-03-25T18:01:59.971Z,10.27
2023-03-25T18:04:27.453Z,10.13
2023-03-25T18:06:54.996Z,10.07
2023-03-25T18:09:24.164Z,10.04
2023-03-25T18:11:55.695Z,9.66
2023-03-25T18:14:24.283Z,9.80
2023-03-25T18:16:52.976Z,9.84
2023-03-25T18:19:30.386Z,9.72
2023-03-25T18:22:06.921Z,9.92
2023-03-25T18:24:41.533Z,10.05
2023-03-25T18:27:14.265Z,10.06
2023-03-25T18:29:41.717Z,10.17
2023-03-25T18:32:09.374Z,10.05
2023-03-25T18:34:36.638Z,10.02
2023-03-25T18:37:04.253Z,10.00
2023-03-25T18:39:32.366Z,10.04
2023-03-25T18:41:59.905Z,10.09
2023-03-25T18:44:28.635Z,10.15
2023-03-25T18:46:56.395Z,10.05
2023-03-25T18:49:23.603Z,10.10
2023-03-25T18:51:51.427Z,10.18
2023-03-25T18:54:19.427Z,10.22
2023-03-25T18:56:47.005Z,10.20
2023-03-25T18:59:18.717Z,10.06
2023-03-25T19:01:47.519Z,9.98
2023-03-25T19:04:14.918Z,9.87
2023-03-25T19:06:43.053Z,9.45
2023-03-25T19:09:18.378Z,8.99
2023-03-25T19:11:47.251Z,8.68
2023-03-25T19:14:14.588Z,8.84
2023-03-25T19:16:46.169Z,8.62
2023-03-25T19:19:21.441Z,8.90
2023-03-25T19:21:50.350Z,8.70
2023-03-25T19:24:17.601Z,8.84
2023-03-25T19:26:45.578Z,8.81
2023-03-25T19:29:13.038Z,8.83
2023-03-25T19:31:42.452Z,8.97
2023-03-25T19:34:09.712Z,9.09
2023-03-25T19:36:37.241Z,8.88
2023-03-25T19:39:09.632Z,8.89
2023-03-25T19:41:42.754Z,9.02
2023-03-25T19:44:10.367Z,9.13
2023-03-25T19:46:38.138Z,8.91
2023-03-25T19:49:05.451Z,9.05
2023-03-25T19:51:32.930Z,8.94
2023-03-25T19:54:00.163Z,8.92
2023-03-25T19:56:27.699Z,8.77
2023-03-25T19:58:55.225Z,8.91
2023-03-25T20:01:23.261Z,9.06
2023-03-25T20:03:51.452Z,8.92
2023-03-25T20:06:19.135Z,9.12
2023-03-25T20:08:46.385Z,9.29
2023-03-25T20:11:14.040Z,9.24
2023-03-25T20:13:41.398Z,9.31
2023-03-25T20:16:09.040Z,9.44
2023-03-25T20:18:37.008Z,9.25
2023-03-25T20:21:09.645Z,9.43
2023-03-25T20:23:36.921Z,9.47
2023-03-25T20:26:04.921Z,9.34
2023-03-25T20:28:32.374Z,9.32
2023-03-25T20:30:59.948Z,9.36
2023-03-25T20:33:28.047Z,9.27
2023-03-25T20:35:55.940Z,9.19
2023-03-25T20:38:23.259Z,9.16
2023-03-25T20:40:54.417Z,9.25
2023-03-25T20:43:21.708Z,9.31
2023-03-25T20:45:49.241Z,9.15
2023-03-25T20:48:16.608Z,9.20
2023-03-25T20:50:44.075Z,9.05
2023-03-25T20:53:11.676Z,9.03
2023-03-25T20:55:39.690Z,9.10
2023-03-25T20:58:08.803Z,9.05
2023-03-25T21:00:36.767Z,9.08
2023-03-25T21:03:05.071Z,8.91
2023-03-25T21:05:32.858Z,9.04
2023-03-25T21:08:00.061Z,8.94
2023-03-25T21:10:27.699Z,8.89
2023-03-25T21:12:54.832Z,8.91
2023-03-25T21:15:22.298Z,8.83
2023-03-25T21:17:49.587Z,8.68
2023-03-25T21:20:17.182Z,8.77
2023-03-25T21:22:44.773Z,8.65
2023-03-25T21:25:14.962Z,8.65
2023-03-25T21:27:44.914Z,8.56
2023-03-25T21:30:13.301Z,8.70
2023-03-25T21:32:41.412Z,8.68
2023-03-25T21:35:09.651Z,8.75
2023-03-25T21:37:40.449Z,8.74
2023-03-25T21:40:11.242Z,8.68
2023-03-25T21:42:45.656Z,8.44
2023-03-25T21:45:15.957Z,8.49
2023-03-25T21:47:45.169Z,8.42
2023-03-25T21:50:14.721Z,8.34
2023-03-25T21:52:47.124Z,8.24
2023-03-25T21:55:16.554Z,8.24
2023-03-25T21:57:45.183Z,8.11
2023-03-25T22:00:19.664Z,8.17
2023-03-25T22:02:47.720Z,7.93
2023-03-25T22:05:16.826Z,8.03
2023-03-25T22:07:44.335Z,7.92
2023-03-25T22:10:12.187Z,7.94
2023-03-25T22:12:39.439Z,8.01
2023-03-25T22:15:07.683Z,7.79
2023-03-25T22:17:35.004Z,7.87
2023-03-25T22:20:03.179Z,7.87
2023-03-25T22:22:30.412Z,7.94
2023-03-25T22:24:57.908Z,7.98
2023-03-25T22:27:25.103Z,8.10
2023-03-25T22:29:52.636Z,7.97
2023-03-25T22:32:19.952Z,8.09
2023-03-25T22:34:47.463Z,8.01
2023-03-25T22:37:14.699Z,8.16
2023-03-25T22:39:42.267Z,8.02
2023-03-25T22:42:09.468Z,8.11
2023-03-25T22:44:37.049Z,7.97
2023-03-25T22:47:04.387Z,7.99
2023-03-25T22:49:31.918Z,7.97
2023-03-25T22:51:59.153Z,7.96
2023-03-25T22:54:26.696Z,7.92
2023-03-25T22:56:53.944Z,7.96
2023-03-25T22:59:21.612Z,8.05
2023-03-25T23:01:48.933Z,7.91
2023-03-25T23:04:16.633Z,7.98
2023-03-25T23:06:49.004Z,8.05
2023-03-25T23:09:41.562Z,8.20
2023-03-25T23:12:14.697Z,8.16
2023-03-25T23:14:47.594Z,8.22
2023-03-25T23:17:15.574Z,8.17
2023-03-25T23:19:43.117Z,8.34
2023-03-25T23:22:10.354Z,8.58
2023-03-25T23:24:38.303Z,8.65
2023-03-25T23:27:08.040Z,8.90
2023-03-25T23:29:37.393Z,8.96
2023-03-25T23:32:06.949Z,9.15
2023-03-25T23:34:35.332Z,9.03
2023-03-25T23:37:03.268Z,9.09
2023-03-25T23:39:31.092Z,9.07
2023-03-25T23:41:58.360Z,9.09
2023-03-25T23:44:26.130Z,9.20
2023-03-25T23:46:53.366Z,9.15
2023-03-25T23:49:20.983Z,8.96
2023-03-25T23:51:48.269Z,9.03
2023-03-25T23:54:16.335Z,9.05
2023-03-25T23:56:43.854Z,9.17
2023-03-25T23:59:12.976Z,9.25
